sensor_id;sensor_type;location;lat;lon;timestamp;temperature;humidity
12771;DHT22;6449;47.666;9.160;2024-01-30T00:02:39;1.20;99.90
12771;DHT22;6449;47.666;9.160;2024-01-30T00:07:32;1.20;99.90
12771;DHT22;6449;47.666;9.160;2024-01-30T00:12:27;1.30;99.90
12771;DHT22;6449;47.666;9.160;2024-01-30T00:17:21;1.20;99.90
12771;DHT22;6449;47.666;9.160;2024-01-30T00:22:17;1.20;99.90
12771;DHT22;6449;47.666;9.160;2024-01-30T00:27:10;0.90;99.90
12771;DHT22;6449;47.666;9.160;2024-01-30T00:32:06;1.00;99.90
12771;DHT22;6449;47.666;9.160;2024-01-30T00:36:59;0.90;99.90
12771;DHT22;6449;47.666;9.160;2024-01-30T00:41:55;1.00;99.90
12771;DHT22;6449;47.666;9.160;2024-01-30T00:46:48;1.10;99.90
12771;DHT22;6449;47.666;9.160;2024-01-30T00:51:43;1.10;99.90
12771;DHT22;6449;47.666;9.160;2024-01-30T00:56:37;0.90;99.90
12771;DHT22;6449;47.666;9.160;2024-01-30T01:01:33;1.00;99.90
12771;DHT22;6449;47.666;9.160;2024-01-30T01:06:26;1.10;99.90
12771;DHT22;6449;47.666;9.160;2024-01-30T01:11:22;1.30;99.90
12771;DHT22;6449;47.666;9.160;2024-01-30T01:16:15;1.10;99.90
12771;DHT22;6449;47.666;9.160;2024-01-30T01:21:09;1.10;99.90
12771;DHT22;6449;47.666;9.160;2024-01-30T01:26:03;0.90;99.90
12771;DHT22;6449;47.666;9.160;2024-01-30T01:30:59;0.80;99.90
12771;DHT22;6449;47.666;9.160;2024-01-30T01:35:57;0.80;99.90
12771;DHT22;6449;47.666;9.160;2024-01-30T01:40:51;0.80;99.90
12771;DHT22;6449;47.666;9.160;2024-01-30T01:45:45;0.70;99.90
12771;DHT22;6449;47.666;9.160;2024-01-30T01:50:43;0.70;99.90
12771;DHT22;6449;47.666;9.160;2024-01-30T01:55:37;0.80;99.90
12771;DHT22;6449;47.666;9.160;2024-01-30T02:00:31;0.90;99.90
12771;DHT22;6449;47.666;9.160;2024-01-30T02:05:30;0.90;99.90
12771;DHT22;6449;47.666;9.160;2024-01-30T02:10:26;0.90;99.90
12771;DHT22;6449;47.666;9.160;2024-01-30T02:15:19;0.70;99.90
12771;DHT22;6449;47.666;9.160;2024-01-30T02:20:13;0.70;99.90
12771;DHT22;6449;47.666;9.160;2024-01-30T02:25:08;0.80;99.90
12771;DHT22;6449;47.666;9.160;2024-01-30T02:30:02;0.80;99.90
12771;DHT22;6449;47.666;9.160;2024-01-30T02:34:56;0.50;99.90
12771;DHT22;6449;47.666;9.160;2024-01-30T02:39:50;0.50;99.90
12771;DHT22;6449;47.666;9.160;2024-01-30T02:44:45;0.50;99.90
12771;DHT22;6449;47.666;9.160;2024-01-30T02:49:38;0.60;99.90
12771;DHT22;6449;47.666;9.160;2024-01-30T02:54:32;0.50;99.90
12771;DHT22;6449;47.666;9.160;2024-01-30T02:59:25;0.60;99.90
12771;DHT22;6449;47.666;9.160;2024-01-30T03:04:20;0.50;99.90
12771;DHT22;6449;47.666;9.160;2024-01-30T03:09:16;0.50;99.90
12771;DHT22;6449;47.666;9.160;2024-01-30T03:14:10;0.60;99.90
12771;DHT22;6449;47.666;9.160;2024-01-30T03:19:06;0.70;99.90
12771;DHT22;6449;47.666;9.160;2024-01-30T03:24:03;0.70;99.90
12771;DHT22;6449;47.666;9.160;2024-01-30T03:28:56;0.80;99.90
12771;DHT22;6449;47.666;9.160;2024-01-30T03:33:50;0.70;99.90
12771;DHT22;6449;47.666;9.160;2024-01-30T03:38:44;0.60;99.90
12771;DHT22;6449;47.666;9.160;2024-01-30T03:43:39;0.60;99.90
12771;DHT22;6449;47.666;9.160;2024-01-30T03:48:33;0.70;99.90
12771;DHT22;6449;47.666;9.160;2024-01-30T03:53:27;0.60;99.90
12771;DHT22;6449;47.666;9.160;2024-01-30T03:58:20;0.70;99.90
12771;DHT22;6449;47.666;9.160;2024-01-30T04:03:16;0.60;99.90
12771;DHT22;6449;47.666;9.160;2024-01-30T04:08:12;0.40;99.90
12771;DHT22;6449;47.666;9.160;2024-01-30T04:13:06;0.30;99.90
12771;DHT22;6449;47.666;9.160;2024-01-30T04:18:03;0.20;99.90
12771;DHT22;6449;47.666;9.160;2024-01-30T04:38:12;0.40;99.90
12771;DHT22;6449;47.666;9.160;2024-01-30T04:53:22;0.00;99.90
12771;DHT22;6449;47.666;9.160;2024-01-30T05:03:37;-0.10;99.90
12771;DHT22;6449;47.666;9.160;2024-01-30T05:23:46;-0.20;99.90
12771;DHT22;6449;47.666;9.160;2024-01-30T05:28:40;0.00;99.90
12771;DHT22;6449;47.666;9.160;2024-01-30T05:33:36;0.10;99.90
12771;DHT22;6449;47.666;9.160;2024-01-30T05:38:30;0.10;99.90
12771;DHT22;6449;47.666;9.160;2024-01-30T05:43:25;-0.10;99.90
12771;DHT22;6449;47.666;9.160;2024-01-30T06:18:50;0.30;99.90
12771;DHT22;6449;47.666;9.160;2024-01-30T06:33:52;0.50;99.90
12771;DHT22;6449;47.666;9.160;2024-01-30T06:38:46;0.40;99.90
12771;DHT22;6449;47.666;9.160;2024-01-30T06:43:40;0.50;99.90
12771;DHT22;6449;47.666;9.160;2024-01-30T06:48:37;0.50;99.90
12771;DHT22;6449;47.666;9.160;2024-01-30T06:53:34;0.50;99.90
12771;DHT22;6449;47.666;9.160;2024-01-30T06:58:27;0.50;99.90
12771;DHT22;6449;47.666;9.160;2024-01-30T07:03:22;0.40;99.90
12771;DHT22;6449;47.666;9.160;2024-01-30T07:08:15;0.20;99.90
12771;DHT22;6449;47.666;9.160;2024-01-30T07:13:11;0.10;99.90
12771;DHT22;6449;47.666;9.160;2024-01-30T07:18:05;0.10;99.90
12771;DHT22;6449;47.666;9.160;2024-01-30T07:22:59;0.10;99.90
12771;DHT22;6449;47.666;9.160;2024-01-30T07:27:54;0.00;99.90
12771;DHT22;6449;47.666;9.160;2024-01-30T07:32:50;0.10;99.90
12771;DHT22;6449;47.666;9.160;2024-01-30T07:37:43;0.10;99.90
12771;DHT22;6449;47.666;9.160;2024-01-30T07:42:37;0.10;99.90
12771;DHT22;6449;47.666;9.160;2024-01-30T07:47:30;0.30;99.90
12771;DHT22;6449;47.666;9.160;2024-01-30T07:52:26;0.30;99.90
12771;DHT22;6449;47.666;9.160;2024-01-30T07:57:20;0.40;99.90
12771;DHT22;6449;47.666;9.160;2024-01-30T08:02:13;0.40;99.90
12771;DHT22;6449;47.666;9.160;2024-01-30T08:07:07;0.50;99.90
12771;DHT22;6449;47.666;9.160;2024-01-30T08:12:03;0.40;99.90
12771;DHT22;6449;47.666;9.160;2024-01-30T08:16:57;0.30;99.90
12771;DHT22;6449;47.666;9.160;2024-01-30T08:21:50;0.40;99.90
12771;DHT22;6449;47.666;9.160;2024-01-30T08:26:47;0.60;99.90
12771;DHT22;6449;47.666;9.160;2024-01-30T08:31:43;0.70;99.90
12771;DHT22;6449;47.666;9.160;2024-01-30T08:36:38;0.70;99.90
12771;DHT22;6449;47.666;9.160;2024-01-30T08:41:32;0.80;99.90
12771;DHT22;6449;47.666;9.160;2024-01-30T08:46:28;0.70;99.90
12771;DHT22;6449;47.666;9.160;2024-01-30T08:51:23;0.60;99.90
12771;DHT22;6449;47.666;9.160;2024-01-30T08:56:18;0.50;99.90
12771;DHT22;6449;47.666;9.160;2024-01-30T09:01:12;0.40;99.90
12771;DHT22;6449;47.666;9.160;2024-01-30T09:06:08;0.40;99.90
12771;DHT22;6449;47.666;9.160;2024-01-30T09:11:08;0.50;99.90
12771;DHT22;6449;47.666;9.160;2024-01-30T09:16:02;0.50;99.90
12771;DHT22;6449;47.666;9.160;2024-01-30T09:21:00;0.70;99.90
12771;DHT22;6449;47.666;9.160;2024-01-30T09:25:53;0.80;99.90
12771;DHT22;6449;47.666;9.160;2024-01-30T09:30:49;0.80;99.90
12771;DHT22;6449;47.666;9.160;2024-01-30T09:35:43;0.70;99.90
12771;DHT22;6449;47.666;9.160;2024-01-30T09:40:37;0.70;99.90
12771;DHT22;6449;47.666;9.160;2024-01-30T09:45:32;0.80;99.90
12771;DHT22;6449;47.666;9.160;2024-01-30T09:50:29;0.90;99.90
12771;DHT22;6449;47.666;9.160;2024-01-30T09:55:24;1.00;99.90
12771;DHT22;6449;47.666;9.160;2024-01-30T10:00:21;0.80;99.90
12771;DHT22;6449;47.666;9.160;2024-01-30T10:05:19;0.90;99.90
12771;DHT22;6449;47.666;9.160;2024-01-30T10:10:18;1.00;99.90
12771;DHT22;6449;47.666;9.160;2024-01-30T10:15:14;1.10;99.90
12771;DHT22;6449;47.666;9.160;2024-01-30T10:20:11;1.10;99.90
12771;DHT22;6449;47.666;9.160;2024-01-30T10:25:09;1.10;99.90
12771;DHT22;6449;47.666;9.160;2024-01-30T10:35:04;1.10;99.90
12771;DHT22;6449;47.666;9.160;2024-01-30T10:40:02;1.10;99.90
12771;DHT22;6449;47.666;9.160;2024-01-30T10:45:05;0.90;99.90
12771;DHT22;6449;47.666;9.160;2024-01-30T10:50:04;0.90;99.90
12771;DHT22;6449;47.666;9.160;2024-01-30T10:55:00;1.00;99.90
12771;DHT22;6449;47.666;9.160;2024-01-30T10:59:57;1.30;99.90
12771;DHT22;6449;47.666;9.160;2024-01-30T11:04:58;1.60;99.90
12771;DHT22;6449;47.666;9.160;2024-01-30T11:10:02;1.70;99.90
12771;DHT22;6449;47.666;9.160;2024-01-30T11:15:05;1.50;99.90
12771;DHT22;6449;47.666;9.160;2024-01-30T11:20:00;1.50;99.90
12771;DHT22;6449;47.666;9.160;2024-01-30T11:25:02;1.60;99.90
12771;DHT22;6449;47.666;9.160;2024-01-30T11:30:01;1.80;99.90
12771;DHT22;6449;47.666;9.160;2024-01-30T11:34:58;2.00;99.90
12771;DHT22;6449;47.666;9.160;2024-01-30T11:50:13;2.00;99.90
12771;DHT22;6449;47.666;9.160;2024-01-30T12:05:23;2.10;99.90
12771;DHT22;6449;47.666;9.160;2024-01-30T12:15:20;2.40;99.90
12771;DHT22;6449;47.666;9.160;2024-01-30T12:20:17;2.50;99.90
12771;DHT22;6449;47.666;9.160;2024-01-30T12:40:42;2.80;99.90
12771;DHT22;6449;47.666;9.160;2024-01-30T12:50:53;2.90;99.90
12771;DHT22;6449;47.666;9.160;2024-01-30T12:55:47;3.00;99.90
12771;DHT22;6449;47.666;9.160;2024-01-30T13:00:42;3.10;99.90
12771;DHT22;6449;47.666;9.160;2024-01-30T13:05:37;3.20;99.90
12771;DHT22;6449;47.666;9.160;2024-01-30T13:10:30;3.20;99.90
12771;DHT22;6449;47.666;9.160;2024-01-30T13:15:26;3.30;99.90
12771;DHT22;6449;47.666;9.160;2024-01-30T13:20:22;3.30;99.90
12771;DHT22;6449;47.666;9.160;2024-01-30T13:25:31;3.50;99.90
12771;DHT22;6449;47.666;9.160;2024-01-30T13:35:33;3.60;99.90
12771;DHT22;6449;47.666;9.160;2024-01-30T13:40:27;3.60;99.90
12771;DHT22;6449;47.666;9.160;2024-01-30T13:56:00;3.60;99.90
12771;DHT22;6449;47.666;9.160;2024-01-30T14:06:24;3.40;99.90
12771;DHT22;6449;47.666;9.160;2024-01-30T14:11:22;3.40;99.90
12771;DHT22;6449;47.666;9.160;2024-01-30T14:16:16;3.30;99.90
12771;DHT22;6449;47.666;9.160;2024-01-30T14:21:10;3.20;99.90
12771;DHT22;6449;47.666;9.160;2024-01-30T14:26:04;3.30;99.90
12771;DHT22;6449;47.666;9.160;2024-01-30T14:56:38;2.90;99.90
12771;DHT22;6449;47.666;9.160;2024-01-30T18:31:48;2.50;99.90
12771;DHT22;6449;47.666;9.160;2024-01-30T18:36:42;2.50;99.90
12771;DHT22;6449;47.666;9.160;2024-01-30T18:41:36;2.50;99.90
12771;DHT22;6449;47.666;9.160;2024-01-30T18:46:29;2.50;99.90
12771;DHT22;6449;47.666;9.160;2024-01-30T22:49:13;2.40;99.90
12771;DHT22;6449;47.666;9.160;2024-01-30T22:54:07;2.30;99.90
12771;DHT22;6449;47.666;9.160;2024-01-30T22:59:00;2.20;99.90
12771;DHT22;6449;47.666;9.160;2024-01-30T23:03:56;2.30;99.90
